Time;durP1;ratioP1;P1;durP2;ratioP2;P2;SDS_P1;SDS_P2;PMS_P1;PMS_P2;Temp;Humidity;BMP_temperature;BMP_pressure;BME280_temperature;BME280_humidity;BME280_pressure;Samples;Min_cycle;Max_cycle;Signal;HPM_P1;HPM_P2
2021/10/11 00:02:22;;;;;;;15.63;4.70;;;16.30;99.90;;;16.65;73.76;102616.63;4845782;29;20500;-73
2021/10/11 00:04:51;;;;;;;12.50;4.82;;;16.30;99.90;;;16.64;73.40;102616.66;4845749;29;20088;-73
2021/10/11 00:07:21;;;;;;;12.02;4.50;;;16.40;99.90;;;16.40;73.84;102620.19;4845953;29;20058;-72
2021/10/11 00:09:49;;;;;;;10.73;4.95;;;16.20;99.90;;;16.03;73.76;102581.00;4845688;29;20122;-72
2021/10/11 00:12:21;;;;;;;12.88;4.40;;;16.00;99.90;;;16.31;73.93;102624.63;4845322;29;20581;-72
2021/10/11 00:14:50;;;;;;;14.45;4.63;;;15.90;99.90;;;16.20;73.81;102620.19;4845606;29;20099;-72
2021/10/11 00:17:18;;;;;;;16.58;4.50;;;15.80;99.90;;;16.08;73.87;102617.53;4845178;29;20588;-72
2021/10/11 00:19:50;;;;;;;16.65;4.55;;;15.80;99.90;;;15.95;73.79;102623.72;4845205;29;20102;-73
2021/10/11 00:22:20;;;;;;;16.23;4.47;;;15.70;99.90;;;16.11;73.17;102624.63;4845482;29;20094;-72
2021/10/11 00:24:49;;;;;;;10.60;3.78;;;15.80;99.90;;;16.14;72.66;102622.84;4845451;29;20132;-72
2021/10/11 00:27:18;;;;;;;13.10;4.72;;;15.80;99.90;;;16.04;72.53;102625.53;4845072;29;20128;-73
2021/10/11 00:29:46;;;;;;;13.35;5.10;;;15.70;99.90;;;16.15;72.32;102619.31;4845297;29;20046;-72
2021/10/11 00:32:15;;;;;;;13.55;4.35;;;15.80;99.90;;;16.05;72.61;102619.28;4844972;29;20077;-72
2021/10/11 00:34:44;;;;;;;15.55;4.47;;;15.70;99.90;;;15.97;72.42;102613.03;4845229;29;20118;-72
2021/10/11 00:37:12;;;;;;;10.23;4.13;;;15.60;99.90;;;16.11;71.90;102611.28;4843864;29;20077;-72
2021/10/11 00:39:42;;;;;;;15.07;5.28;;;15.70;99.90;;;16.06;71.33;102613.97;4845301;29;20110;-73
2021/10/11 00:42:10;;;;;;;18.10;5.70;;;15.60;99.90;;;15.94;71.61;102608.59;4845715;29;20057;-73
2021/10/11 00:44:39;;;;;;;17.92;7.05;;;15.60;99.90;;;16.04;71.56;102609.50;4844656;29;20041;-73
2021/10/11 00:47:07;;;;;;;17.70;6.15;;;15.60;99.90;;;16.04;71.31;102607.72;4845295;29;20061;-73
2021/10/11 00:49:35;;;;;;;12.88;5.50;;;15.60;99.90;;;16.03;71.01;102611.28;4844892;29;20087;-72
2021/10/11 00:52:05;;;;;;;13.30;4.95;;;15.60;99.90;;;15.99;70.77;102619.25;4844804;29;20057;-73
2021/10/11 00:54:33;;;;;;;10.85;4.75;;;15.60;99.90;;;15.98;70.57;102614.81;4844605;29;20084;-74
2021/10/11 00:57:04;;;;;;;16.13;5.07;;;15.60;99.90;;;15.88;70.39;102626.38;4843514;29;20110;-73
2021/10/11 00:59:32;;;;;;;12.52;4.15;;;15.50;99.90;;;15.57;70.53;102585.38;4844557;29;20046;-73
2021/10/11 01:02:01;;;;;;;16.13;5.40;;;15.40;99.90;;;15.85;70.67;102624.56;4844327;29;20042;-73
2021/10/11 01:04:30;;;;;;;13.57;4.82;;;15.50;99.90;;;15.80;70.57;102626.34;4844439;29;20125;-73
2021/10/11 01:06:58;;;;;;;14.80;4.72;;;15.40;99.90;;;15.86;70.46;102633.47;4844589;29;20060;-73
2021/10/11 01:09:26;;;;;;;14.00;4.75;;;15.40;99.90;;;15.86;70.29;102625.47;4843598;29;20110;-73
2021/10/11 01:11:55;;;;;;;12.40;4.93;;;15.50;99.90;;;15.91;70.23;102621.06;4844548;29;20042;-72
2021/10/11 01:14:25;;;;;;;14.52;4.85;;;15.50;99.90;;;15.89;69.80;102614.81;4844215;29;20057;-73
2021/10/11 01:16:53;;;;;;;10.97;4.80;;;15.40;99.90;;;15.83;69.67;102629.00;4844570;29;20038;-73
2021/10/11 01:19:22;;;;;;;12.63;4.60;;;15.40;99.90;;;15.82;69.26;102629.03;4844641;29;20037;-73
2021/10/11 01:21:51;;;;;;;11.50;4.68;;;15.40;99.90;;;15.86;69.33;102620.13;4844161;29;20045;-73
2021/10/11 01:24:20;;;;;;;10.10;4.43;;;15.40;99.90;;;15.81;69.09;102611.25;4842863;29;20078;-73
2021/10/11 01:26:48;;;;;;;9.77;3.85;;;15.40;99.90;;;15.75;69.03;102616.56;4844046;29;20077;-73
2021/10/11 01:29:19;;;;;;;12.88;4.60;;;15.40;99.90;;;15.79;68.95;102621.94;4843937;29;20054;-73
2021/10/11 01:31:48;;;;;;;10.65;4.30;;;15.40;99.90;;;15.78;68.64;102629.91;4844225;29;20046;-73
2021/10/11 01:34:17;;;;;;;15.80;4.55;;;15.30;99.90;;;15.62;68.69;102620.09;4844433;29;20495;-73
2021/10/11 01:36:45;;;;;;;13.40;4.43;;;15.30;99.90;;;15.50;68.86;102633.38;4843798;29;20053;-73
2021/10/11 01:39:15;;;;;;;14.98;4.50;;;15.10;99.90;;;15.59;68.85;102628.06;4844367;29;20116;-70
2021/10/11 01:41:43;;;;;;;12.10;4.47;;;15.10;99.90;;;15.57;68.45;102620.06;4844095;29;20058;-70
2021/10/11 01:44:12;;;;;;;11.00;4.35;;;15.20;99.90;;;15.70;68.17;102629.88;4843680;29;20085;-70
2021/10/11 01:46:41;;;;;;;15.77;4.93;;;15.20;99.90;;;15.69;67.71;102627.22;4843717;29;20053;-70
2021/10/11 01:49:09;;;;;;;12.27;4.10;;;15.20;99.90;;;15.50;67.99;102620.03;4843628;29;20111;-70
2021/10/11 01:51:37;;;;;;;15.65;4.55;;;15.10;99.90;;;15.49;68.14;102613.81;4842625;29;20461;-73
2021/10/11 01:54:06;;;;;;;14.02;4.53;;;15.10;99.90;;;15.51;68.11;102617.38;4843558;29;20054;-73
2021/10/11 01:56:35;;;;;;;14.70;4.70;;;15.10;99.90;;;15.45;68.17;102611.16;4843885;29;20046;-73
2021/10/11 01:59:04;;;;;;;12.65;4.20;;;15.00;99.90;;;15.44;67.80;102593.34;4843732;29;20106;-72
2021/10/11 02:01:32;;;;;;;10.52;3.97;;;15.10;99.90;;;15.51;67.69;102617.38;4843526;29;20148;-73
2021/10/11 02:04:01;;;;;;;10.77;4.13;;;15.10;99.90;;;15.60;67.38;102606.72;4844089;29;20058;-74
2021/10/11 02:06:30;;;;;;;14.40;5.05;;;15.20;99.90;;;15.65;67.04;102609.41;4843371;29;20081;-73
2021/10/11 02:08:58;;;;;;;12.55;4.63;;;15.30;99.90;;;15.66;67.21;102614.75;4843579;29;20070;-73
2021/10/11 02:11:28;;;;;;;14.02;4.78;;;15.30;99.90;;;15.65;66.93;102610.31;4843785;29;20137;-73
2021/10/11 02:13:58;;;;;;;8.20;4.07;;;15.20;99.90;;;15.58;67.16;102613.84;4843345;29;20050;-73
2021/10/11 02:16:30;;;;;;;12.60;4.40;;;15.20;99.90;;;15.58;66.59;102612.97;4842124;29;20477;-72
2021/10/11 02:18:58;;;;;;;12.70;4.20;;;15.20;99.90;;;15.44;66.44;102612.91;4843380;29;20104;-72
2021/10/11 02:21:27;;;;;;;12.32;4.45;;;15.10;99.90;;;15.51;66.52;102619.16;4842897;29;20132;-73
2021/10/11 02:23:55;;;;;;;14.35;4.50;;;15.10;99.90;;;15.47;66.63;102614.69;4843006;29;20046;-73
2021/10/11 02:26:26;;;;;;;10.60;4.22;;;15.00;99.90;;;15.47;66.60;102618.25;4843341;29;20061;-72
2021/10/11 02:28:55;;;;;;;8.90;4.33;;;15.10;99.90;;;15.51;66.37;102614.72;4842046;29;20608;-73
2021/10/11 02:31:25;;;;;;;17.25;4.72;;;15.10;99.90;;;15.49;66.16;102607.56;4842936;29;20045;-72
2021/10/11 02:33:53;;;;;;;10.32;4.00;;;15.10;99.90;;;15.36;66.11;102594.19;4842889;29;20485;-73
2021/10/11 02:36:22;;;;;;;17.23;4.50;;;15.10;99.90;;;15.55;66.12;102603.16;4842786;29;20106;-73
2021/10/11 02:38:50;;;;;;;9.48;4.60;;;15.10;99.90;;;15.53;65.91;102602.28;4842818;29;20556;-73
2021/10/11 02:41:19;;;;;;;16.85;4.25;;;15.10;99.90;;;15.56;65.85;102594.28;4843052;29;20070;-72
2021/10/11 02:43:47;;;;;;;15.95;4.93;;;15.20;99.90;;;15.14;66.04;102539.00;4842856;29;20052;-73
2021/10/11 02:46:16;;;;;;;13.07;4.55;;;15.10;99.90;;;15.51;65.97;102581.81;4842729;29;20134;-73
2021/10/11 02:48:46;;;;;;;11.93;4.50;;;15.10;99.90;;;15.48;66.47;102580.03;4841497;29;20061;-73
2021/10/11 02:51:14;;;;;;;13.02;4.82;;;15.10;99.90;;;15.50;66.09;102588.03;4842657;29;20042;-73
2021/10/11 02:53:45;;;;;;;10.55;4.40;;;15.10;99.90;;;15.51;65.97;102587.13;4842814;29;20149;-73
2021/10/11 02:56:14;;;;;;;14.27;4.75;;;15.10;99.90;;;15.39;65.89;102575.53;4842569;29;20497;-70
2021/10/11 02:58:42;;;;;;;11.50;4.22;;;15.10;99.90;;;15.41;65.79;102554.19;4843079;29;20048;-70
2021/10/11 03:01:10;;;;;;;7.43;4.32;;;15.10;99.90;;;15.35;65.89;102565.72;4843087;29;20054;-70
2021/10/11 03:03:39;;;;;;;12.85;4.72;;;15.10;99.90;;;15.51;65.66;102568.47;4842461;29;20038;-70
2021/10/11 03:06:09;;;;;;;11.68;4.18;;;15.10;99.90;;;15.56;65.45;102583.63;4842732;29;20045;-70
2021/10/11 03:08:38;;;;;;;13.88;4.68;;;15.10;99.90;;;15.51;65.52;102573.81;4842390;29;20082;-70
2021/10/11 03:11:06;;;;;;;9.95;4.30;;;15.10;99.90;;;15.58;65.71;102583.63;4842691;29;20512;-70
2021/10/11 03:13:34;;;;;;;13.95;4.22;;;15.10;99.90;;;15.42;66.12;102547.13;4842581;29;20353;-70
2021/10/11 03:16:03;;;;;;;14.30;4.22;;;15.20;99.90;;;15.65;65.59;102572.06;4842409;29;20497;-70
2021/10/11 03:18:31;;;;;;;8.30;4.45;;;15.20;99.90;;;15.39;66.01;102574.63;4842577;29;20477;-70
2021/10/11 03:21:00;;;;;;;11.68;3.80;;;15.10;99.90;;;15.22;67.86;102565.69;4842348;29;20086;-70
2021/10/11 03:23:29;;;;;;;10.43;4.55;;;14.90;99.90;;;15.27;68.82;102575.47;4842295;29;20054;-70
2021/10/11 03:25:58;;;;;;;12.00;4.05;;;14.90;99.90;;;15.27;68.78;102577.28;4842610;29;20058;-70
2021/10/11 03:28:26;;;;;;;11.60;3.88;;;14.90;99.90;;;15.28;68.25;102560.38;4842834;29;20054;-70
2021/10/11 03:30:54;;;;;;;13.48;4.13;;;14.90;99.90;;;15.23;68.90;102562.16;4842456;29;20053;-70
2021/10/11 03:33:23;;;;;;;7.55;4.20;;;14.90;99.90;;;15.11;69.58;102570.09;4844077;29;20052;-70
2021/10/11 03:35:51;;;;;;;12.85;4.28;;;14.80;99.90;;;15.01;69.95;102563.81;4846040;29;20486;-70
2021/10/11 03:38:20;;;;;;;7.07;3.55;;;14.60;99.90;;;15.02;70.40;102559.41;4846175;29;20070;-70
2021/10/11 03:40:50;;;;;;;13.02;4.10;;;14.60;99.90;;;15.09;70.16;102566.53;4845906;29;20465;-70
2021/10/11 03:43:18;;;;;;;13.48;4.43;;;14.70;99.90;;;15.14;69.24;102573.66;4845710;29;20042;-70
2021/10/11 03:45:51;;;;;;;7.55;3.65;;;14.70;99.90;;;15.03;69.18;102571.81;4846022;29;20050;-70
2021/10/11 03:48:19;;;;;;;9.05;3.90;;;14.60;99.90;;;14.83;70.06;102570.81;4844501;29;20090;-70
2021/10/11 03:50:48;;;;;;;8.95;3.80;;;14.50;99.90;;;14.58;71.30;102566.22;4846492;29;20050;-70
2021/10/11 03:53:17;;;;;;;11.25;4.10;;;14.30;99.90;;;14.54;70.70;102557.34;4845679;29;20054;-71
2021/10/11 03:55:46;;;;;;;13.50;4.43;;;14.20;99.90;;;14.60;70.17;102562.72;4846192;29;20489;-70
2021/10/11 03:58:16;;;;;;;13.43;4.75;;;14.20;99.90;;;14.65;70.23;102563.66;4845978;29;20102;-70
2021/10/11 04:00:44;;;;;;;10.13;4.63;;;14.20;99.90;;;14.76;69.76;102567.25;4846139;29;20050;-70
2021/10/11 04:03:13;;;;;;;13.90;4.85;;;14.40;99.90;;;14.81;69.71;102561.94;4845485;29;20041;-70
2021/10/11 04:05:42;;;;;;;11.13;4.90;;;14.40;99.90;;;14.93;69.38;102570.00;4845509;29;20454;-70
2021/10/11 04:08:12;;;;;;;13.57;4.65;;;14.50;99.90;;;14.95;68.63;102571.78;4845391;29;20492;-70
2021/10/11 04:10:49;;;;;;;12.32;4.90;;;14.60;99.90;;;14.98;68.70;102563.78;4845400;29;20070;-70
2021/10/11 04:13:21;;;;;;;13.32;6.40;;;14.60;99.90;;;15.02;68.73;102570.06;4845555;29;20042;-70
2021/10/11 04:15:49;;;;;;;20.67;6.45;;;14.70;99.90;;;15.04;68.55;102565.63;4845628;29;20103;-70
2021/10/11 04:18:18;;;;;;;15.07;5.25;;;14.60;99.90;;;15.07;68.46;102563.84;4845555;29;20132;-70
2021/10/11 04:20:47;;;;;;;13.93;5.80;;;14.80;99.90;;;15.11;68.59;102568.31;4845218;29;20073;-70
2021/10/11 04:23:16;;;;;;;14.23;4.82;;;14.80;99.90;;;15.24;68.96;102575.47;4845137;29;20133;-72
2021/10/11 04:25:44;;;;;;;12.30;5.38;;;14.90;99.90;;;15.29;69.04;102579.03;4845432;29;20106;-73
2021/10/11 04:28:15;;;;;;;11.63;5.30;;;14.90;99.90;;;15.31;69.85;102582.59;4845133;29;20042;-72
2021/10/11 04:30:44;;;;;;;12.90;5.47;;;14.90;99.90;;;15.40;70.27;102592.44;4845626;29;20073;-72
2021/10/11 04:33:14;;;;;;;11.23;5.10;;;15.00;99.90;;;15.19;70.43;102550.56;4845059;29;20068;-72
2021/10/11 04:35:43;;;;;;;9.20;4.63;;;15.00;99.90;;;15.29;71.26;102568.38;4845409;29;20385;-72
2021/10/11 04:38:12;;;;;;;10.40;4.97;;;14.90;99.90;;;15.21;72.00;102553.25;4845246;29;20521;-72
2021/10/11 04:40:40;;;;;;;9.50;5.13;;;14.90;99.90;;;15.23;72.30;102560.34;4844838;29;20042;-72
2021/10/11 04:43:09;;;;;;;12.48;5.28;;;14.80;99.90;;;15.15;72.75;102556.78;4844752;29;20484;-73
2021/10/11 04:45:37;;;;;;;14.55;5.22;;;14.70;99.90;;;15.20;72.45;102551.44;4845099;29;20133;-72
2021/10/11 04:48:09;;;;;;;12.93;4.95;;;14.80;99.90;;;15.02;73.03;102535.41;4844540;29;20557;-71
2021/10/11 04:50:39;;;;;;;10.52;5.13;;;14.70;99.90;;;15.14;73.28;102555.00;4845207;29;20050;-72
2021/10/11 04:53:09;;;;;;;12.23;5.15;;;14.70;99.90;;;15.19;73.45;102553.22;4844901;29;20106;-72
2021/10/11 04:55:37;;;;;;;12.10;5.30;;;14.80;99.90;;;15.24;73.90;102553.25;4845142;29;20049;-72
2021/10/11 04:58:06;;;;;;;12.70;5.80;;;14.80;99.90;;;15.18;73.60;102534.56;4844502;29;20385;-72
2021/10/11 05:00:36;;;;;;;11.48;5.45;;;14.80;99.90;;;15.21;73.92;102537.25;4844491;29;20069;-72
2021/10/11 05:03:07;;;;;;;11.25;5.13;;;14.90;99.90;;;15.30;74.04;102556.84;4844506;29;20038;-72
2021/10/11 05:05:35;;;;;;;12.03;4.87;;;14.90;99.90;;;15.35;74.19;102556.81;4844772;29;20049;-72
2021/10/11 05:08:05;;;;;;;12.85;5.45;;;14.90;99.90;;;15.43;74.62;102563.13;4844922;29;20081;-72
2021/10/11 05:10:35;;;;;;;15.02;5.03;;;15.00;99.90;;;15.59;74.49;102562.28;4843438;29;20056;-72
2021/10/11 05:13:03;;;;;;;14.05;5.43;;;15.10;99.90;;;15.68;74.37;102562.28;4845068;29;20110;-72
2021/10/11 05:15:31;;;;;;;11.35;4.38;;;15.30;99.90;;;15.60;75.23;102569.38;4843161;29;20482;-72
2021/10/11 05:18:00;;;;;;;11.02;4.95;;;15.20;99.90;;;15.71;75.15;102566.75;4844179;29;20411;-72
2021/10/11 05:20:32;;;;;;;13.23;5.28;;;15.30;99.90;;;15.71;75.36;102566.75;4844310;29;20094;-72
2021/10/11 05:23:01;;;;;;;13.73;5.57;;;15.30;99.90;;;15.83;75.24;102564.97;4844230;29;20461;-72
2021/10/11 05:25:30;;;;;;;13.82;4.72;;;15.30;99.90;;;15.85;75.13;102570.34;4844378;29;20125;-72
2021/10/11 05:27:58;;;;;;;15.38;5.07;;;15.40;99.90;;;15.90;74.71;102563.22;4843993;29;20058;-72
2021/10/11 05:30:27;;;;;;;14.23;5.20;;;15.50;99.90;;;16.00;74.38;102560.56;4844146;29;20069;-72
2021/10/11 05:32:55;;;;;;;13.80;4.90;;;15.60;99.90;;;15.99;74.57;102560.53;4844464;29;20080;-72
2021/10/11 05:35:24;;;;;;;12.35;5.05;;;15.60;99.90;;;15.75;74.49;102504.50;4844190;29;20046;-72
2021/10/11 05:37:53;;;;;;;12.40;5.22;;;15.60;99.90;;;16.07;73.92;102551.66;4843766;29;20050;-72
2021/10/11 05:40:22;;;;;;;13.07;5.57;;;15.60;99.90;;;16.11;73.89;102558.78;4843866;29;20050;-72
2021/10/11 05:42:50;;;;;;;16.98;4.95;;;15.70;99.90;;;16.11;73.50;102563.22;4842778;29;20054;-72
2021/10/11 05:45:19;;;;;;;11.15;4.80;;;15.70;99.90;;;16.13;73.38;102572.13;4842719;29;20058;-72
2021/10/11 05:47:47;;;;;;;14.38;3.90;;;15.70;99.90;;;16.11;73.41;102566.78;4843675;29;20042;-72
2021/10/11 05:50:16;;;;;;;11.02;4.70;;;15.70;99.90;;;16.00;73.75;102568.56;4844256;29;20123;-72
2021/10/11 05:52:44;;;;;;;15.23;4.53;;;15.60;99.90;;;16.01;73.89;102559.66;4843569;29;20118;-72
2021/10/11 05:55:14;;;;;;;14.73;5.13;;;15.60;99.90;;;16.05;73.67;102564.09;4843241;29;20569;-73
2021/10/11 05:57:42;;;;;;;17.23;5.43;;;15.60;99.90;;;16.08;73.41;102573.91;4843490;29;20075;-72
2021/10/11 06:00:13;;;;;;;12.48;4.65;;;15.70;99.90;;;16.03;73.38;102576.56;4843267;29;20434;-72
2021/10/11 06:02:41;;;;;;;10.18;4.40;;;15.60;99.90;;;16.00;73.01;102573.00;4843367;29;20050;-72
2021/10/11 06:05:12;;;;;;;15.70;4.95;;;15.60;99.90;;;16.05;73.07;102577.47;4843429;29;20045;-72
2021/10/11 06:07:40;;;;;;;11.73;4.80;;;15.60;99.90;;;16.02;73.17;102580.13;4843567;29;20087;-72
2021/10/11 06:10:09;;;;;;;18.35;4.57;;;15.60;99.90;;;15.99;73.23;102571.22;4843515;29;20481;-72
2021/10/11 06:12:40;;;;;;;11.77;4.50;;;15.60;99.90;;;15.98;73.40;102575.69;4843179;29;20460;-72
2021/10/11 06:15:09;;;;;;;;;;;15.60;99.90;;;16.02;73.18;102574.81;4843974;29;20119;-72
2021/10/11 06:17:37;;;;;;;13.48;4.68;;;15.60;99.90;;;15.85;73.16;102559.66;4843163;29;19924;-72
2021/10/11 06:20:07;;;;;;;15.52;4.65;;;15.60;99.90;;;15.94;72.82;102579.25;4842955;29;20073;-72
2021/10/11 06:22:35;;;;;;;15.73;5.03;;;15.50;99.90;;;15.91;72.25;102589.03;4843134;29;20459;-72
2021/10/11 06:25:05;;;;;;;15.13;5.18;;;15.50;99.90;;;15.89;71.79;102582.78;4842954;29;20485;-72
2021/10/11 06:27:33;;;;;;;17.58;4.82;;;15.40;99.90;;;15.82;71.40;102595.22;4843011;29;20128;-72
2021/10/11 06:30:04;;;;;;;14.52;5.07;;;15.40;99.90;;;15.79;71.62;102597.00;4842924;29;20132;-72
2021/10/11 06:32:33;;;;;;;9.73;4.55;;;15.40;99.90;;;15.80;71.88;102591.66;4843125;29;20068;-72
2021/10/11 06:35:01;;;;;;;9.98;4.30;;;15.40;99.90;;;15.57;71.99;102541.81;4842812;29;20057;-72
2021/10/11 06:37:30;;;;;;;9.57;4.28;;;15.40;99.90;;;15.82;71.99;102576.56;4842887;29;20046;-72
2021/10/11 06:39:58;;;;;;;14.30;5.25;;;15.50;99.90;;;15.87;71.42;102595.25;4842607;29;20092;-72
2021/10/11 06:42:27;;;;;;;12.65;5.13;;;15.50;99.90;;;15.87;71.11;102588.09;4842781;29;20046;-72
2021/10/11 06:44:56;;;;;;;9.13;4.75;;;15.50;99.90;;;15.83;71.19;102593.47;4842941;29;20034;-72
2021/10/11 06:47:25;;;;;;;9.13;4.18;;;15.40;99.90;;;15.80;71.18;102593.44;4842556;29;20056;-72
2021/10/11 06:49:54;;;;;;;10.80;4.80;;;15.40;99.90;;;15.80;70.80;102596.09;4842774;29;20088;-72
2021/10/11 06:52:22;;;;;;;12.93;4.93;;;15.40;99.90;;;15.81;70.94;102608.56;4842591;29;20128;-72
2021/10/11 06:54:51;;;;;;;10.40;4.70;;;15.40;99.90;;;15.69;71.42;102581.88;4842878;29;20057;-72
2021/10/11 06:57:19;;;;;;;11.95;4.20;;;15.40;99.90;;;15.77;71.30;102605.03;4842781;29;20046;-72
2021/10/11 06:59:47;;;;;;;11.77;4.53;;;15.30;99.90;;;15.79;71.13;102605.91;4842831;29;20102;-72
2021/10/11 07:02:17;;;;;;;11.57;4.85;;;15.40;99.90;;;15.64;70.89;102570.31;4842455;29;20083;-72
2021/10/11 07:04:54;;;;;;;13.80;4.88;;;15.40;99.90;;;15.88;70.93;102610.34;4842659;29;20062;-72
2021/10/11 07:07:23;;;;;;;16.95;4.72;;;15.40;99.90;;;15.92;70.66;102620.16;4842266;29;20060;-72
2021/10/11 07:09:55;;;;;;;11.45;4.95;;;15.50;99.90;;;15.75;70.73;102581.88;4841664;29;20054;-72
2021/10/11 07:12:24;;;;;;;11.77;4.80;;;15.60;99.90;;;15.96;70.52;102617.50;4842330;29;20042;-72
2021/10/11 07:15:00;;;;;;;11.77;5.03;;;15.50;99.90;;;16.01;70.38;102620.16;4843064;29;20050;-72
2021/10/11 07:17:28;;;;;;;9.73;4.60;;;15.60;99.90;;;16.04;70.72;102614.84;4842376;29;20042;-72
2021/10/11 07:19:58;;;;;;;9.05;4.30;;;15.60;99.90;;;16.15;70.61;102613.06;4842168;29;20467;-72
2021/10/11 07:22:27;;;;;;;12.13;4.43;;;15.70;99.90;;;16.30;70.23;102629.09;4843799;29;20386;-72
2021/10/11 07:24:55;;;;;;;12.65;4.78;;;15.90;99.90;;;16.43;69.79;102638.91;4842233;29;20098;-72
2021/10/11 07:27:23;;;;;;;16.90;4.45;;;16.00;99.90;;;16.64;69.61;102636.25;4842166;29;20042;-72
2021/10/11 07:29:52;;;;;;;13.25;4.60;;;16.20;99.90;;;16.90;69.43;102636.19;4842168;29;20441;-73
2021/10/11 07:32:20;;;;;;;11.30;4.50;;;16.50;99.90;;;17.07;68.32;102632.59;4842181;29;20479;-73
2021/10/11 07:34:48;;;;;;;14.02;4.63;;;16.70;99.90;;;17.07;68.61;102600.50;4842738;29;20050;-73
2021/10/11 07:37:18;;;;;;;14.30;5.22;;;16.90;99.90;;;17.62;68.75;102645.78;4842248;29;20140;-73
2021/10/11 07:39:47;;;;;;;13.70;4.53;;;17.20;99.90;;;17.95;67.23;102646.50;4841960;29;20046;-73
2021/10/11 07:42:15;;;;;;;12.60;4.18;;;17.50;99.90;;;18.33;66.11;102646.19;4842010;29;20085;-73
2021/10/11 07:44:43;;;;;;;12.32;4.22;;;17.90;99.90;;;18.80;63.80;102646.72;4840909;29;20069;-73
2021/10/11 07:47:12;;;;;;;12.32;4.82;;;18.40;99.90;;;19.33;62.25;102656.00;4842236;29;20467;-73
2021/10/11 07:49:41;;;;;;;11.02;3.95;;;19.00;99.90;;;19.59;60.55;102661.94;4840768;29;20066;-74
2021/10/11 07:52:09;;;;;;;18.27;4.80;;;19.30;99.90;;;19.86;60.00;102669.63;4842352;29;20046;-74
2021/10/11 07:54:39;;;;;;;11.35;4.22;;;19.60;99.90;;;19.84;58.44;102651.78;4841064;29;20501;-74
2021/10/11 07:57:07;;;;;;;8.65;3.92;;;19.70;99.90;;;19.98;58.22;102657.81;4841939;29;20049;-73
2021/10/11 07:59:36;;;;;;;10.00;4.03;;;19.80;99.90;;;20.08;58.82;102671.09;4842156;29;20046;-74
2021/10/11 08:02:04;;;;;;;14.15;4.60;;;19.80;99.90;;;20.38;58.41;102672.47;4841004;29;20054;-74
2021/10/11 08:04:33;;;;;;;12.90;4.22;;;20.00;99.90;;;20.57;55.86;102655.13;4842274;29;20099;-74
2021/10/11 08:07:06;;;;;;;10.40;3.58;;;20.40;99.90;;;21.00;55.62;102666.88;4842460;29;20114;-74
2021/10/11 08:09:34;;;;;;;7.75;3.50;;;20.70;99.90;;;20.68;53.90;102675.53;4841813;29;20046;-74
2021/10/11 08:12:05;;;;;;;11.85;4.03;;;20.50;99.90;;;20.79;53.78;102674.47;4841881;29;20493;-74
2021/10/11 08:14:33;;;;;;;15.43;3.83;;;20.40;99.90;;;20.73;53.55;102671.88;4841812;29;20046;-73
2021/10/11 08:17:02;;;;;;;11.68;4.30;;;20.40;99.90;;;20.91;54.28;102675.13;4842140;29;20069;-73
2021/10/11 08:19:30;;;;;;;9.20;3.47;;;20.60;99.90;;;20.97;54.19;102675.00;4843532;29;20050;-74
2021/10/11 08:21:59;;;;;;;11.35;3.78;;;20.60;99.90;;;21.18;52.85;102671.06;4845451;29;20081;-73
2021/10/11 08:24:27;;;;;;;12.05;3.53;;;20.90;99.90;;;21.10;52.91;102678.41;4845664;29;20140;-74
2021/10/11 08:26:55;;;;;;;9.98;4.25;;;20.80;99.90;;;20.62;53.74;102678.34;4845002;29;20500;-74
2021/10/11 08:29:26;;;;;;;9.23;4.22;;;20.40;99.90;;;20.00;53.54;102678.38;4845072;29;20079;-74
2021/10/11 08:31:54;;;;;;;13.65;4.70;;;20.10;99.90;;;19.84;54.63;102678.63;4845288;29;20053;-74
2021/10/11 08:34:22;;;;;;;12.88;4.07;;;19.70;99.90;;;19.59;55.56;102670.00;4845203;29;20077;-74
2021/10/11 08:36:52;;;;;;;11.65;4.43;;;19.60;99.90;;;19.40;57.54;102679.19;4843765;29;20058;-74
2021/10/11 08:39:20;;;;;;;17.15;4.50;;;19.30;99.90;;;18.90;59.72;102677.03;4844845;29;20046;-74
2021/10/11 08:41:50;;;;;;;11.18;4.30;;;18.70;99.90;;;18.75;60.98;102640.53;4844838;29;20042;-74
2021/10/11 08:44:19;;;;;;;13.82;4.18;;;18.60;99.90;;;18.76;61.66;102649.44;4845029;29;20062;-74
2021/10/11 08:46:49;;;;;;;14.15;4.95;;;18.60;99.90;;;18.66;62.77;102672.75;4844962;29;20054;-73
2021/10/11 08:49:18;;;;;;;7.97;3.85;;;18.40;99.90;;;18.53;63.00;102671.09;4844760;29;20058;-74
2021/10/11 08:51:47;;;;;;;16.17;4.78;;;18.20;99.90;;;18.13;63.78;102664.22;4844651;29;20106;-73
2021/10/11 08:54:15;;;;;;;13.48;4.25;;;18.00;99.90;;;18.26;63.36;102665.03;4844621;29;20050;-73
2021/10/11 08:56:44;;;;;;;14.82;4.63;;;18.00;99.90;;;18.21;63.24;102672.22;4844565;29;20145;-73
2021/10/11 08:59:12;;;;;;;14.73;4.93;;;17.90;99.90;;;18.23;63.77;102663.28;4844518;29;20557;-73
2021/10/11 09:01:41;;;;;;;13.93;4.65;;;18.00;99.90;;;18.21;64.16;102640.97;4843467;29;20465;-73
2021/10/11 09:04:19;;;;;;;14.45;4.00;;;18.00;99.90;;;18.29;64.03;102673.06;4844770;29;20042;-73
2021/10/11 09:07:03;;;;;;;11.63;4.20;;;18.00;99.90;;;18.18;64.26;102678.47;4844760;29;20053;-73
2021/10/11 09:09:32;;;;;;;13.93;4.32;;;17.80;99.90;;;18.18;64.60;102677.56;4844710;29;20057;-74
2021/10/11 09:12:01;;;;;;;11.57;4.40;;;17.90;99.90;;;18.26;63.83;102684.69;4844361;29;20395;-73
2021/10/11 09:14:29;;;;;;;12.85;4.20;;;17.90;99.90;;;18.62;62.94;102676.38;4843020;29;20504;-72
2021/10/11 09:17:02;;;;;;;11.52;4.18;;;18.20;99.90;;;18.67;62.85;102657.56;4843195;29;20054;-73
2021/10/11 09:19:45;;;;;;;13.80;4.80;;;18.50;99.90;;;19.07;60.33;102674.16;4844279;29;20049;-73
2021/10/11 09:22:14;;;;;;;9.48;4.07;;;18.80;99.90;;;19.45;59.77;102685.41;4844455;29;20114;-73
2021/10/11 09:24:42;;;;;;;13.35;4.63;;;19.10;99.90;;;19.71;59.99;102689.53;4844104;29;20516;-73
2021/10/11 09:27:11;;;;;;;14.38;4.35;;;19.40;99.90;;;19.48;58.72;102688.94;4844332;29;20565;-73
2021/10/11 09:29:40;;;;;;;13.82;4.20;;;19.30;99.90;;;19.56;58.36;102694.22;4843811;29;20116;-72
2021/10/11 09:32:11;;;;;;;12.95;4.70;;;19.30;99.90;;;19.76;58.89;102700.22;4843373;29;20046;-72
2021/10/11 09:34:42;;;;;;;11.98;4.07;;;19.50;99.90;;;19.68;58.22;102672.56;4843878;29;20046;-73
2021/10/11 09:37:13;;;;;;;15.85;4.40;;;19.60;99.90;;;19.75;58.25;102706.50;4843729;29;20045;-72
2021/10/11 09:39:43;;;;;;;11.68;4.47;;;19.60;99.90;;;19.55;59.03;102703.19;4842763;29;20066;-72
2021/10/11 09:42:16;;;;;;;11.38;4.07;;;19.40;99.90;;;19.49;59.62;102703.25;4844028;29;20089;-73
2021/10/11 09:44:52;;;;;;;8.82;4.45;;;19.30;99.90;;;19.20;59.09;102702.66;4844057;29;20046;-73
2021/10/11 09:47:27;;;;;;;8.10;4.05;;;19.00;99.90;;;19.14;58.55;102702.72;4843767;29;20050;-72
2021/10/11 09:49:58;;;;;;;9.32;4.15;;;18.90;99.90;;;19.07;57.92;102703.66;4843820;29;20058;-73
2021/10/11 09:52:26;;;;;;;13.10;3.88;;;18.90;99.90;;;19.08;57.72;102705.47;4843686;29;20102;-72
2021/10/11 09:54:55;;;;;;;7.97;3.50;;;18.90;99.90;;;19.00;57.33;102700.16;4842597;29;20572;-72
2021/10/11 09:57:24;;;;;;;11.60;3.38;;;18.80;99.90;;;18.48;57.73;102701.53;4843549;29;20050;-72
2021/10/11 09:59:53;;;;;;;9.25;3.83;;;18.40;99.90;;;18.42;57.97;102710.50;4843712;29;20133;-73
2021/10/11 10:02:26;;;;;;;13.02;4.57;;;18.30;99.90;;;18.22;58.60;102701.66;4843605;29;20075;-72
2021/10/11 10:05:02;;;;;;;9.50;3.55;;;18.10;99.90;;;18.31;58.92;102701.59;4843366;29;20509;-72
2021/10/11 10:07:34;;;;;;;11.70;4.05;;;18.10;99.90;;;18.43;59.79;102696.19;4843408;29;20044;-72
2021/10/11 10:10:06;;;;;;;12.52;4.22;;;18.20;99.90;;;18.47;60.73;102676.50;4843515;29;20409;-72
2021/10/11 10:12:43;;;;;;;11.77;4.13;;;18.30;99.90;;;18.44;61.11;102644.38;4843598;29;20511;-72
2021/10/11 10:15:12;;;;;;;12.40;4.30;;;18.40;99.90;;;18.75;61.17;102677.16;4843512;29;20061;-72
2021/10/11 10:17:40;;;;;;;12.60;4.05;;;18.50;99.90;;;18.72;60.68;102678.06;4842960;29;20412;-72